Terminal Aerodrome Forecast
Issued by NWS

Current Version | Previous Version | Text Only | Print | Product List | Glossary On
Versions: 1 2 3 4 5 6 7 8 9 10 11 12 13 14 15 16 17 18 19 20
000
FTUS42 KTAE 230900 AAA
TAFVLD
TAF AMD
KVLD 230902Z 2309/2406 00000KT 6SM BR SKC
      TEMPO 2309/2313 3SM BR
     FM231300 22005KT P6SM SCT040=

USA.gov is the U.S. government's official web portal to all federal, state and local government web resources and services.